sensor_id;sensor_type;location;lat;lon;timestamp;P1;durP1;ratioP1;P2;durP2;ratioP2
23358;SDS011;11851;50.796;4.372;2022-11-02T00:00:24;9.20;;;1.83;;
23358;SDS011;11851;50.796;4.372;2022-11-02T00:02:51;7.40;;;1.80;;
23358;SDS011;11851;50.796;4.372;2022-11-02T00:05:17;11.63;;;1.88;;
23358;SDS011;11851;50.796;4.372;2022-11-02T00:07:48;11.68;;;1.73;;
23358;SDS011;11851;50.796;4.372;2022-11-02T00:10:18;14.65;;;2.00;;
23358;SDS011;11851;50.796;4.372;2022-11-02T00:12:45;12.23;;;1.83;;
23358;SDS011;11851;50.796;4.372;2022-11-02T00:15:11;14.02;;;1.90;;
23358;SDS011;11851;50.796;4.372;2022-11-02T00:17:38;12.05;;;1.80;;
23358;SDS011;11851;50.796;4.372;2022-11-02T00:20:09;13.15;;;2.08;;
23358;SDS011;11851;50.796;4.372;2022-11-02T00:22:36;7.78;;;1.77;;
23358;SDS011;11851;50.796;4.372;2022-11-02T00:25:03;14.95;;;2.20;;
23358;SDS011;11851;50.796;4.372;2022-11-02T00:27:30;8.82;;;1.55;;
23358;SDS011;11851;50.796;4.372;2022-11-02T00:29:58;13.73;;;1.88;;
23358;SDS011;11851;50.796;4.372;2022-11-02T00:32:24;13.30;;;2.17;;
23358;SDS011;11851;50.796;4.372;2022-11-02T00:34:51;10.02;;;2.00;;
23358;SDS011;11851;50.796;4.372;2022-11-02T00:37:16;9.70;;;1.70;;
23358;SDS011;11851;50.796;4.372;2022-11-02T00:39:42;18.70;;;2.38;;
23358;SDS011;11851;50.796;4.372;2022-11-02T00:42:08;17.33;;;1.92;;
23358;SDS011;11851;50.796;4.372;2022-11-02T00:44:33;8.95;;;1.98;;
23358;SDS011;11851;50.796;4.372;2022-11-02T00:46:59;12.90;;;2.20;;
23358;SDS011;11851;50.796;4.372;2022-11-02T00:49:25;15.18;;;1.65;;
23358;SDS011;11851;50.796;4.372;2022-11-02T00:51:51;10.32;;;1.90;;
23358;SDS011;11851;50.796;4.372;2022-11-02T00:54:16;15.27;;;1.67;;
23358;SDS011;11851;50.796;4.372;2022-11-02T00:56:42;16.75;;;3.03;;
23358;SDS011;11851;50.796;4.372;2022-11-02T00:59:08;15.93;;;1.83;;
23358;SDS011;11851;50.796;4.372;2022-11-02T01:01:33;17.35;;;1.98;;
23358;SDS011;11851;50.796;4.372;2022-11-02T01:03:59;9.30;;;2.08;;
23358;SDS011;11851;50.796;4.372;2022-11-02T01:06:25;12.18;;;1.40;;
23358;SDS011;11851;50.796;4.372;2022-11-02T01:08:50;16.08;;;2.70;;
23358;SDS011;11851;50.796;4.372;2022-11-02T01:11:17;10.65;;;1.65;;
23358;SDS011;11851;50.796;4.372;2022-11-02T01:13:45;11.35;;;2.00;;
23358;SDS011;11851;50.796;4.372;2022-11-02T01:16:11;16.80;;;2.83;;
23358;SDS011;11851;50.796;4.372;2022-11-02T01:18:38;12.23;;;1.92;;
23358;SDS011;11851;50.796;4.372;2022-11-02T01:21:05;15.75;;;2.10;;
23358;SDS011;11851;50.796;4.372;2022-11-02T01:23:31;17.98;;;2.13;;
23358;SDS011;11851;50.796;4.372;2022-11-02T01:26:01;11.48;;;2.05;;
23358;SDS011;11851;50.796;4.372;2022-11-02T01:28:34;13.05;;;2.17;;
23358;SDS011;11851;50.796;4.372;2022-11-02T01:31:00;12.82;;;1.52;;
23358;SDS011;11851;50.796;4.372;2022-11-02T01:33:26;15.18;;;1.73;;
23358;SDS011;11851;50.796;4.372;2022-11-02T01:35:52;19.45;;;2.45;;
23358;SDS011;11851;50.796;4.372;2022-11-02T01:38:18;18.52;;;2.30;;
23358;SDS011;11851;50.796;4.372;2022-11-02T01:40:44;10.13;;;2.08;;
23358;SDS011;11851;50.796;4.372;2022-11-02T01:43:26;12.55;;;2.00;;
23358;SDS011;11851;50.796;4.372;2022-11-02T01:48:33;13.95;;;2.05;;
23358;SDS011;11851;50.796;4.372;2022-11-02T01:51:09;11.60;;;1.77;;
23358;SDS011;11851;50.796;4.372;2022-11-02T01:53:38;16.23;;;1.92;;
23358;SDS011;11851;50.796;4.372;2022-11-02T01:56:13;11.98;;;1.80;;
23358;SDS011;11851;50.796;4.372;2022-11-02T01:58:42;13.20;;;2.17;;
23358;SDS011;11851;50.796;4.372;2022-11-02T02:01:11;16.67;;;2.03;;
23358;SDS011;11851;50.796;4.372;2022-11-02T02:03:37;14.27;;;1.77;;
23358;SDS011;11851;50.796;4.372;2022-11-02T02:06:11;12.00;;;1.92;;
23358;SDS011;11851;50.796;4.372;2022-11-02T02:08:39;15.77;;;2.03;;
23358;SDS011;11851;50.796;4.372;2022-11-02T02:11:23;11.45;;;2.13;;
23358;SDS011;11851;50.796;4.372;2022-11-02T02:14:11;10.00;;;2.05;;
23358;SDS011;11851;50.796;4.372;2022-11-02T02:19:26;21.33;;;2.92;;
23358;SDS011;11851;50.796;4.372;2022-11-02T02:27:46;21.33;;;2.85;;
23358;SDS011;11851;50.796;4.372;2022-11-02T02:30:23;17.88;;;1.92;;
23358;SDS011;11851;50.796;4.372;2022-11-02T02:32:59;20.88;;;2.70;;
23358;SDS011;11851;50.796;4.372;2022-11-02T02:35:42;18.27;;;2.20;;
23358;SDS011;11851;50.796;4.372;2022-11-02T02:38:34;14.27;;;2.00;;
23358;SDS011;11851;50.796;4.372;2022-11-02T02:41:24;15.68;;;2.53;;
23358;SDS011;11851;50.796;4.372;2022-11-02T02:43:55;12.27;;;2.08;;
23358;SDS011;11851;50.796;4.372;2022-11-02T02:49:22;14.93;;;2.30;;
23358;SDS011;11851;50.796;4.372;2022-11-02T02:51:55;9.82;;;1.65;;
23358;SDS011;11851;50.796;4.372;2022-11-02T02:54:24;16.02;;;2.97;;
23358;SDS011;11851;50.796;4.372;2022-11-02T02:57:11;14.95;;;2.80;;
23358;SDS011;11851;50.796;4.372;2022-11-02T02:59:41;19.50;;;2.72;;
23358;SDS011;11851;50.796;4.372;2022-11-02T03:02:13;20.05;;;2.72;;
23358;SDS011;11851;50.796;4.372;2022-11-02T03:04:45;10.50;;;2.20;;
23358;SDS011;11851;50.796;4.372;2022-11-02T03:07:11;18.17;;;2.35;;
23358;SDS011;11851;50.796;4.372;2022-11-02T03:09:40;21.98;;;3.30;;
23358;SDS011;11851;50.796;4.372;2022-11-02T03:15:14;15.38;;;2.85;;
23358;SDS011;11851;50.796;4.372;2022-11-02T03:20:46;16.63;;;2.53;;
23358;SDS011;11851;50.796;4.372;2022-11-02T03:23:29;16.50;;;2.20;;
23358;SDS011;11851;50.796;4.372;2022-11-02T03:26:09;14.45;;;2.13;;
23358;SDS011;11851;50.796;4.372;2022-11-02T03:29:11;14.18;;;2.42;;
23358;SDS011;11851;50.796;4.372;2022-11-02T03:39:40;18.80;;;2.92;;
23358;SDS011;11851;50.796;4.372;2022-11-02T03:42:10;19.08;;;2.22;;
23358;SDS011;11851;50.796;4.372;2022-11-02T03:44:39;18.38;;;2.55;;
23358;SDS011;11851;50.796;4.372;2022-11-02T03:47:07;16.20;;;2.22;;
23358;SDS011;11851;50.796;4.372;2022-11-02T03:49:36;27.40;;;3.08;;
23358;SDS011;11851;50.796;4.372;2022-11-02T03:52:06;17.58;;;2.72;;
23358;SDS011;11851;50.796;4.372;2022-11-02T03:57:07;12.70;;;2.17;;
23358;SDS011;11851;50.796;4.372;2022-11-02T03:59:35;15.05;;;2.08;;
23358;SDS011;11851;50.796;4.372;2022-11-02T04:02:01;20.88;;;2.78;;
23358;SDS011;11851;50.796;4.372;2022-11-02T04:04:27;14.30;;;2.25;;
23358;SDS011;11851;50.796;4.372;2022-11-02T04:06:52;20.52;;;2.20;;
23358;SDS011;11851;50.796;4.372;2022-11-02T04:09:19;24.08;;;3.17;;
23358;SDS011;11851;50.796;4.372;2022-11-02T04:11:45;18.27;;;2.28;;
23358;SDS011;11851;50.796;4.372;2022-11-02T04:14:29;19.20;;;2.80;;
23358;SDS011;11851;50.796;4.372;2022-11-02T04:17:04;24.05;;;2.88;;
23358;SDS011;11851;50.796;4.372;2022-11-02T04:19:49;15.88;;;2.40;;
23358;SDS011;11851;50.796;4.372;2022-11-02T04:22:15;26.13;;;2.33;;
23358;SDS011;11851;50.796;4.372;2022-11-02T04:25:00;16.30;;;2.60;;
23358;SDS011;11851;50.796;4.372;2022-11-02T04:27:43;16.55;;;2.30;;
23358;SDS011;11851;50.796;4.372;2022-11-02T04:30:10;12.07;;;2.20;;
23358;SDS011;11851;50.796;4.372;2022-11-02T04:32:37;17.33;;;2.15;;
23358;SDS011;11851;50.796;4.372;2022-11-02T04:35:22;15.65;;;2.58;;
23358;SDS011;11851;50.796;4.372;2022-11-02T04:37:48;20.35;;;3.17;;
23358;SDS011;11851;50.796;4.372;2022-11-02T04:40:32;17.35;;;2.75;;
23358;SDS011;11851;50.796;4.372;2022-11-02T04:42:58;18.02;;;2.78;;
23358;SDS011;11851;50.796;4.372;2022-11-02T04:45:24;26.73;;;3.22;;
23358;SDS011;11851;50.796;4.372;2022-11-02T04:47:50;13.48;;;2.30;;
23358;SDS011;11851;50.796;4.372;2022-11-02T04:50:15;21.15;;;2.75;;
23358;SDS011;11851;50.796;4.372;2022-11-02T04:52:41;16.90;;;2.42;;
23358;SDS011;11851;50.796;4.372;2022-11-02T04:55:07;16.75;;;2.40;;
23358;SDS011;11851;50.796;4.372;2022-11-02T04:57:32;16.48;;;2.83;;
23358;SDS011;11851;50.796;4.372;2022-11-02T04:59:58;19.90;;;2.42;;
23358;SDS011;11851;50.796;4.372;2022-11-02T05:02:25;14.15;;;2.67;;
23358;SDS011;11851;50.796;4.372;2022-11-02T05:04:50;20.42;;;3.10;;
23358;SDS011;11851;50.796;4.372;2022-11-02T05:07:16;18.83;;;2.38;;
23358;SDS011;11851;50.796;4.372;2022-11-02T05:09:42;12.50;;;2.42;;
23358;SDS011;11851;50.796;4.372;2022-11-02T05:12:07;20.23;;;2.58;;
23358;SDS011;11851;50.796;4.372;2022-11-02T05:14:33;21.55;;;3.13;;
23358;SDS011;11851;50.796;4.372;2022-11-02T05:16:59;18.85;;;2.60;;
23358;SDS011;11851;50.796;4.372;2022-11-02T05:19:25;22.55;;;2.85;;
23358;SDS011;11851;50.796;4.372;2022-11-02T05:21:50;24.60;;;2.63;;
23358;SDS011;11851;50.796;4.372;2022-11-02T05:24:16;24.95;;;2.97;;
23358;SDS011;11851;50.796;4.372;2022-11-02T05:26:42;20.75;;;2.70;;
23358;SDS011;11851;50.796;4.372;2022-11-02T05:29:08;18.98;;;2.65;;
23358;SDS011;11851;50.796;4.372;2022-11-02T05:31:33;28.38;;;3.25;;
23358;SDS011;11851;50.796;4.372;2022-11-02T05:33:59;26.25;;;3.10;;
23358;SDS011;11851;50.796;4.372;2022-11-02T05:36:24;23.05;;;2.90;;
23358;SDS011;11851;50.796;4.372;2022-11-02T05:38:53;23.60;;;3.15;;
23358;SDS011;11851;50.796;4.372;2022-11-02T05:41:19;21.90;;;2.80;;
23358;SDS011;11851;50.796;4.372;2022-11-02T05:43:45;23.83;;;3.20;;
23358;SDS011;11851;50.796;4.372;2022-11-02T05:46:11;21.63;;;2.75;;
23358;SDS011;11851;50.796;4.372;2022-11-02T05:48:39;19.45;;;2.53;;
23358;SDS011;11851;50.796;4.372;2022-11-02T05:51:05;16.60;;;2.30;;
23358;SDS011;11851;50.796;4.372;2022-11-02T05:53:32;23.70;;;2.85;;
23358;SDS011;11851;50.796;4.372;2022-11-02T05:56:01;17.75;;;2.72;;
23358;SDS011;11851;50.796;4.372;2022-11-02T05:58:29;21.23;;;3.20;;
23358;SDS011;11851;50.796;4.372;2022-11-02T06:00:59;24.83;;;2.92;;
23358;SDS011;11851;50.796;4.372;2022-11-02T06:03:25;22.63;;;3.03;;
23358;SDS011;11851;50.796;4.372;2022-11-02T06:05:54;26.55;;;3.15;;
23358;SDS011;11851;50.796;4.372;2022-11-02T06:08:24;25.48;;;3.42;;
23358;SDS011;11851;50.796;4.372;2022-11-02T06:10:50;25.05;;;3.40;;
23358;SDS011;11851;50.796;4.372;2022-11-02T06:13:16;20.77;;;3.15;;
23358;SDS011;11851;50.796;4.372;2022-11-02T06:15:41;28.88;;;3.28;;
23358;SDS011;11851;50.796;4.372;2022-11-02T06:18:07;29.23;;;2.95;;
23358;SDS011;11851;50.796;4.372;2022-11-02T06:20:33;23.63;;;3.53;;
23358;SDS011;11851;50.796;4.372;2022-11-02T06:22:58;28.45;;;3.47;;
23358;SDS011;11851;50.796;4.372;2022-11-02T06:25:24;36.67;;;5.00;;
23358;SDS011;11851;50.796;4.372;2022-11-02T06:27:54;22.73;;;3.17;;
23358;SDS011;11851;50.796;4.372;2022-11-02T06:30:24;30.50;;;4.00;;
23358;SDS011;11851;50.796;4.372;2022-11-02T06:32:50;23.10;;;3.25;;
23358;SDS011;11851;50.796;4.372;2022-11-02T06:35:17;18.40;;;3.20;;
23358;SDS011;11851;50.796;4.372;2022-11-02T06:37:45;25.30;;;3.15;;
23358;SDS011;11851;50.796;4.372;2022-11-02T06:40:11;26.58;;;3.88;;
23358;SDS011;11851;50.796;4.372;2022-11-02T06:42:38;21.00;;;2.90;;
23358;SDS011;11851;50.796;4.372;2022-11-02T06:45:04;24.88;;;3.30;;
23358;SDS011;11851;50.796;4.372;2022-11-02T06:47:31;24.70;;;3.20;;
23358;SDS011;11851;50.796;4.372;2022-11-02T06:49:58;18.50;;;3.20;;
23358;SDS011;11851;50.796;4.372;2022-11-02T06:52:27;33.42;;;3.58;;
23358;SDS011;11851;50.796;4.372;2022-11-02T06:54:53;22.88;;;3.75;;
23358;SDS011;11851;50.796;4.372;2022-11-02T06:57:19;25.67;;;2.80;;
23358;SDS011;11851;50.796;4.372;2022-11-02T06:59:45;24.67;;;3.47;;
23358;SDS011;11851;50.796;4.372;2022-11-02T07:02:11;30.30;;;3.22;;
23358;SDS011;11851;50.796;4.372;2022-11-02T07:04:36;30.27;;;3.78;;
23358;SDS011;11851;50.796;4.372;2022-11-02T07:07:02;31.75;;;3.40;;
23358;SDS011;11851;50.796;4.372;2022-11-02T07:09:28;34.03;;;3.50;;
23358;SDS011;11851;50.796;4.372;2022-11-02T07:11:53;25.33;;;3.22;;
23358;SDS011;11851;50.796;4.372;2022-11-02T07:14:19;29.77;;;3.38;;
23358;SDS011;11851;50.796;4.372;2022-11-02T07:16:44;30.85;;;4.03;;
23358;SDS011;11851;50.796;4.372;2022-11-02T07:19:10;25.88;;;3.33;;
23358;SDS011;11851;50.796;4.372;2022-11-02T07:21:36;26.75;;;3.90;;
23358;SDS011;11851;50.796;4.372;2022-11-02T07:24:01;30.05;;;3.85;;
23358;SDS011;11851;50.796;4.372;2022-11-02T07:26:27;27.92;;;3.65;;
23358;SDS011;11851;50.796;4.372;2022-11-02T07:28:53;24.98;;;3.33;;
23358;SDS011;11851;50.796;4.372;2022-11-02T07:31:18;28.08;;;3.45;;
23358;SDS011;11851;50.796;4.372;2022-11-02T07:33:44;29.30;;;4.05;;
23358;SDS011;11851;50.796;4.372;2022-11-02T07:36:10;36.10;;;4.25;;
23358;SDS011;11851;50.796;4.372;2022-11-02T07:38:35;21.45;;;3.13;;
23358;SDS011;11851;50.796;4.372;2022-11-02T07:41:01;30.20;;;2.97;;
23358;SDS011;11851;50.796;4.372;2022-11-02T07:43:27;29.55;;;3.58;;
23358;SDS011;11851;50.796;4.372;2022-11-02T07:45:53;20.42;;;3.10;;
23358;SDS011;11851;50.796;4.372;2022-11-02T07:48:18;28.27;;;3.58;;
23358;SDS011;11851;50.796;4.372;2022-11-02T07:50:44;35.90;;;3.80;;
23358;SDS011;11851;50.796;4.372;2022-11-02T07:53:10;36.05;;;3.75;;
23358;SDS011;11851;50.796;4.372;2022-11-02T07:55:36;25.77;;;3.50;;
23358;SDS011;11851;50.796;4.372;2022-11-02T07:58:03;28.33;;;3.47;;
23358;SDS011;11851;50.796;4.372;2022-11-02T08:00:35;28.67;;;3.97;;
23358;SDS011;11851;50.796;4.372;2022-11-02T08:03:02;23.85;;;3.45;;
23358;SDS011;11851;50.796;4.372;2022-11-02T08:05:30;25.38;;;3.53;;
23358;SDS011;11851;50.796;4.372;2022-11-02T08:08:02;32.42;;;3.55;;
23358;SDS011;11851;50.796;4.372;2022-11-02T08:10:29;24.67;;;3.70;;
23358;SDS011;11851;50.796;4.372;2022-11-02T08:12:56;22.10;;;3.78;;
23358;SDS011;11851;50.796;4.372;2022-11-02T08:15:21;24.85;;;3.63;;
23358;SDS011;11851;50.796;4.372;2022-11-02T08:17:58;29.02;;;3.42;;
23358;SDS011;11851;50.796;4.372;2022-11-02T08:20:43;22.88;;;3.00;;
23358;SDS011;11851;50.796;4.372;2022-11-02T08:23:13;24.23;;;3.15;;
23358;SDS011;11851;50.796;4.372;2022-11-02T08:25:40;37.28;;;4.00;;
23358;SDS011;11851;50.796;4.372;2022-11-02T08:28:07;32.55;;;4.13;;
23358;SDS011;11851;50.796;4.372;2022-11-02T08:30:36;27.63;;;3.30;;
23358;SDS011;11851;50.796;4.372;2022-11-02T08:33:02;30.15;;;3.83;;
23358;SDS011;11851;50.796;4.372;2022-11-02T08:35:30;29.55;;;4.07;;
23358;SDS011;11851;50.796;4.372;2022-11-02T08:37:56;22.95;;;3.55;;
23358;SDS011;11851;50.796;4.372;2022-11-02T08:40:23;27.48;;;3.45;;
23358;SDS011;11851;50.796;4.372;2022-11-02T08:42:56;23.33;;;3.50;;
23358;SDS011;11851;50.796;4.372;2022-11-02T08:45:23;22.77;;;3.42;;
23358;SDS011;11851;50.796;4.372;2022-11-02T08:47:50;29.23;;;3.70;;
23358;SDS011;11851;50.796;4.372;2022-11-02T08:50:15;23.95;;;3.47;;
23358;SDS011;11851;50.796;4.372;2022-11-02T08:52:41;35.78;;;4.25;;
23358;SDS011;11851;50.796;4.372;2022-11-02T08:55:07;23.10;;;3.20;;
23358;SDS011;11851;50.796;4.372;2022-11-02T08:57:42;27.63;;;3.28;;
23358;SDS011;11851;50.796;4.372;2022-11-02T09:00:29;34.38;;;4.05;;
23358;SDS011;11851;50.796;4.372;2022-11-02T09:03:09;27.10;;;3.08;;
23358;SDS011;11851;50.796;4.372;2022-11-02T09:05:43;17.67;;;3.10;;
23358;SDS011;11851;50.796;4.372;2022-11-02T09:08:11;28.15;;;4.05;;
23358;SDS011;11851;50.796;4.372;2022-11-02T09:10:38;31.75;;;3.55;;
23358;SDS011;11851;50.796;4.372;2022-11-02T09:13:05;24.08;;;4.15;;
23358;SDS011;11851;50.796;4.372;2022-11-02T09:15:32;23.48;;;3.63;;
23358;SDS011;11851;50.796;4.372;2022-11-02T09:18:00;29.38;;;4.40;;
23358;SDS011;11851;50.796;4.372;2022-11-02T09:20:26;30.77;;;3.85;;
23358;SDS011;11851;50.796;4.372;2022-11-02T09:22:52;34.13;;;4.40;;
23358;SDS011;11851;50.796;4.372;2022-11-02T09:25:17;30.08;;;3.45;;
23358;SDS011;11851;50.796;4.372;2022-11-02T09:27:43;24.85;;;3.72;;
23358;SDS011;11851;50.796;4.372;2022-11-02T09:30:10;30.77;;;3.30;;
23358;SDS011;11851;50.796;4.372;2022-11-02T09:32:36;22.27;;;3.08;;
23358;SDS011;11851;50.796;4.372;2022-11-02T09:35:04;28.73;;;3.00;;
23358;SDS011;11851;50.796;4.372;2022-11-02T09:37:32;39.72;;;3.53;;
23358;SDS011;11851;50.796;4.372;2022-11-02T09:39:58;26.73;;;3.95;;
23358;SDS011;11851;50.796;4.372;2022-11-02T09:42:25;27.13;;;3.75;;
23358;SDS011;11851;50.796;4.372;2022-11-02T09:45:00;28.85;;;3.72;;
23358;SDS011;11851;50.796;4.372;2022-11-02T09:47:29;31.05;;;3.78;;
23358;SDS011;11851;50.796;4.372;2022-11-02T09:50:01;31.83;;;4.72;;
23358;SDS011;11851;50.796;4.372;2022-11-02T09:52:30;25.73;;;4.05;;
23358;SDS011;11851;50.796;4.372;2022-11-02T09:55:00;24.42;;;3.25;;
23358;SDS011;11851;50.796;4.372;2022-11-02T09:57:31;23.42;;;3.03;;
23358;SDS011;11851;50.796;4.372;2022-11-02T09:59:57;24.75;;;4.28;;
23358;SDS011;11851;50.796;4.372;2022-11-02T10:05:31;26.27;;;3.45;;
23358;SDS011;11851;50.796;4.372;2022-11-02T10:13:43;21.77;;;3.20;;
23358;SDS011;11851;50.796;4.372;2022-11-02T10:16:34;20.75;;;3.60;;
23358;SDS011;11851;50.796;4.372;2022-11-02T10:19:04;25.35;;;2.97;;
23358;SDS011;11851;50.796;4.372;2022-11-02T10:21:37;26.50;;;3.08;;
23358;SDS011;11851;50.796;4.372;2022-11-02T10:24:22;24.63;;;2.97;;
23358;SDS011;11851;50.796;4.372;2022-11-02T10:26:51;32.67;;;3.55;;
23358;SDS011;11851;50.796;4.372;2022-11-02T10:29:36;23.65;;;3.05;;
23358;SDS011;11851;50.796;4.372;2022-11-02T10:32:11;35.58;;;3.42;;
23358;SDS011;11851;50.796;4.372;2022-11-02T10:34:39;29.10;;;3.40;;
23358;SDS011;11851;50.796;4.372;2022-11-02T10:39:57;28.45;;;3.45;;
23358;SDS011;11851;50.796;4.372;2022-11-02T10:45:29;23.88;;;3.55;;
23358;SDS011;11851;50.796;4.372;2022-11-02T10:48:10;22.10;;;3.40;;
23358;SDS011;11851;50.796;4.372;2022-11-02T10:51:02;26.73;;;3.03;;
23358;SDS011;11851;50.796;4.372;2022-11-02T10:53:54;29.92;;;4.07;;
23358;SDS011;11851;50.796;4.372;2022-11-02T10:56:22;26.90;;;3.58;;
23358;SDS011;11851;50.796;4.372;2022-11-02T10:58:59;31.05;;;3.42;;
23358;SDS011;11851;50.796;4.372;2022-11-02T11:01:33;29.17;;;3.72;;
23358;SDS011;11851;50.796;4.372;2022-11-02T11:04:03;23.67;;;3.20;;
23358;SDS011;11851;50.796;4.372;2022-11-02T11:06:38;24.30;;;3.77;;
23358;SDS011;11851;50.796;4.372;2022-11-02T11:09:24;25.08;;;3.08;;
23358;SDS011;11851;50.796;4.372;2022-11-02T11:14:22;26.05;;;3.72;;
23358;SDS011;11851;50.796;4.372;2022-11-02T11:17:32;24.40;;;2.97;;
23358;SDS011;11851;50.796;4.372;2022-11-02T11:19:46;23.63;;;3.00;;
23358;SDS011;11851;50.796;4.372;2022-11-02T11:22:25;23.10;;;2.75;;
23358;SDS011;11851;50.796;4.372;2022-11-02T11:24:51;26.25;;;2.97;;
23358;SDS011;11851;50.796;4.372;2022-11-02T11:27:18;17.38;;;2.65;;
23358;SDS011;11851;50.796;4.372;2022-11-02T11:29:48;21.63;;;3.15;;
23358;SDS011;11851;50.796;4.372;2022-11-02T11:32:37;26.70;;;3.25;;
23358;SDS011;11851;50.796;4.372;2022-11-02T11:35:02;19.23;;;3.50;;
23358;SDS011;11851;50.796;4.372;2022-11-02T11:37:31;19.75;;;3.00;;
23358;SDS011;11851;50.796;4.372;2022-11-02T11:39:59;25.05;;;3.30;;
23358;SDS011;11851;50.796;4.372;2022-11-02T11:42:41;22.52;;;3.10;;
23358;SDS011;11851;50.796;4.372;2022-11-02T11:45:17;26.17;;;2.50;;
23358;SDS011;11851;50.796;4.372;2022-11-02T11:47:49;21.38;;;2.92;;
23358;SDS011;11851;50.796;4.372;2022-11-02T11:50:17;25.17;;;3.15;;
23358;SDS011;11851;50.796;4.372;2022-11-02T11:52:43;19.90;;;3.22;;
23358;SDS011;11851;50.796;4.372;2022-11-02T11:55:19;18.58;;;2.67;;
23358;SDS011;11851;50.796;4.372;2022-11-02T11:58:05;29.60;;;2.75;;
23358;SDS011;11851;50.796;4.372;2022-11-02T12:00:36;25.85;;;3.28;;
23358;SDS011;11851;50.796;4.372;2022-11-02T12:05:29;19.08;;;3.05;;
23358;SDS011;11851;50.796;4.372;2022-11-02T12:27:39;19.50;;;2.83;;
23358;SDS011;11851;50.796;4.372;2022-11-02T12:30:33;17.23;;;3.00;;
23358;SDS011;11851;50.796;4.372;2022-11-02T12:33:34;22.20;;;3.75;;
23358;SDS011;11851;50.796;4.372;2022-11-02T12:41:48;23.85;;;2.75;;
23358;SDS011;11851;50.796;4.372;2022-11-02T12:49:52;18.40;;;3.17;;
23358;SDS011;11851;50.796;4.372;2022-11-02T12:52:41;20.63;;;3.88;;
23358;SDS011;11851;50.796;4.372;2022-11-02T12:55:13;20.52;;;3.03;;
23358;SDS011;11851;50.796;4.372;2022-11-02T12:57:43;19.70;;;2.70;;
23358;SDS011;11851;50.796;4.372;2022-11-02T13:00:28;19.17;;;2.75;;
23358;SDS011;11851;50.796;4.372;2022-11-02T13:05:27;17.00;;;3.05;;
23358;SDS011;11851;50.796;4.372;2022-11-02T13:08:01;17.55;;;3.13;;
23358;SDS011;11851;50.796;4.372;2022-11-02T13:10:39;14.27;;;3.58;;
23358;SDS011;11851;50.796;4.372;2022-11-02T13:13:19;16.33;;;3.05;;
23358;SDS011;11851;50.796;4.372;2022-11-02T13:15:52;14.38;;;2.30;;
23358;SDS011;11851;50.796;4.372;2022-11-02T13:18:20;19.83;;;2.45;;
23358;SDS011;11851;50.796;4.372;2022-11-02T13:20:57;22.90;;;2.83;;
23358;SDS011;11851;50.796;4.372;2022-11-02T13:26:40;20.08;;;2.40;;
23358;SDS011;11851;50.796;4.372;2022-11-02T13:28:55;15.52;;;1.98;;
23358;SDS011;11851;50.796;4.372;2022-11-02T13:31:27;14.25;;;2.20;;
23358;SDS011;11851;50.796;4.372;2022-11-02T13:33:59;19.35;;;2.50;;
23358;SDS011;11851;50.796;4.372;2022-11-02T13:36:27;14.63;;;2.30;;
23358;SDS011;11851;50.796;4.372;2022-11-02T13:49:04;14.55;;;2.60;;
23358;SDS011;11851;50.796;4.372;2022-11-02T13:51:41;9.65;;;2.35;;
23358;SDS011;11851;50.796;4.372;2022-11-02T13:56:49;18.75;;;2.97;;
23358;SDS011;11851;50.796;4.372;2022-11-02T13:59:18;14.68;;;2.67;;
23358;SDS011;11851;50.796;4.372;2022-11-02T14:01:47;13.85;;;2.50;;
23358;SDS011;11851;50.796;4.372;2022-11-02T14:04:16;13.02;;;2.88;;
23358;SDS011;11851;50.796;4.372;2022-11-02T14:06:50;9.40;;;2.08;;
23358;SDS011;11851;50.796;4.372;2022-11-02T14:09:22;11.23;;;2.15;;
23358;SDS011;11851;50.796;4.372;2022-11-02T14:14:44;11.52;;;2.20;;
23358;SDS011;11851;50.796;4.372;2022-11-02T14:17:31;11.18;;;2.05;;
23358;SDS011;11851;50.796;4.372;2022-11-02T14:20:32;11.90;;;2.72;;
23358;SDS011;11851;50.796;4.372;2022-11-02T14:28:32;12.93;;;2.70;;
23358;SDS011;11851;50.796;4.372;2022-11-02T14:47:30;13.60;;;2.47;;
23358;SDS011;11851;50.796;4.372;2022-11-02T14:52:34;16.20;;;2.35;;
23358;SDS011;11851;50.796;4.372;2022-11-02T14:55:05;14.13;;;2.65;;
23358;SDS011;11851;50.796;4.372;2022-11-02T15:06:23;15.57;;;2.45;;
23358;SDS011;11851;50.796;4.372;2022-11-02T15:19:35;10.38;;;2.65;;
23358;SDS011;11851;50.796;4.372;2022-11-02T15:24:55;16.30;;;3.08;;
23358;SDS011;11851;50.796;4.372;2022-11-02T15:27:29;13.50;;;2.42;;
23358;SDS011;11851;50.796;4.372;2022-11-02T15:29:55;10.05;;;2.50;;
23358;SDS011;11851;50.796;4.372;2022-11-02T15:32:23;11.77;;;2.63;;
23358;SDS011;11851;50.796;4.372;2022-11-02T15:34:52;15.13;;;2.50;;
23358;SDS011;11851;50.796;4.372;2022-11-02T15:37:23;16.02;;;3.05;;
23358;SDS011;11851;50.796;4.372;2022-11-02T15:39:51;14.05;;;2.05;;
23358;SDS011;11851;50.796;4.372;2022-11-02T15:47:59;12.43;;;2.20;;
23358;SDS011;11851;50.796;4.372;2022-11-02T16:01:26;25.17;;;3.15;;
23358;SDS011;11851;50.796;4.372;2022-11-02T16:04:03;12.75;;;2.10;;
23358;SDS011;11851;50.796;4.372;2022-11-02T16:06:40;13.82;;;2.47;;
23358;SDS011;11851;50.796;4.372;2022-11-02T16:14:38;13.25;;;2.55;;
23358;SDS011;11851;50.796;4.372;2022-11-02T16:17:04;18.60;;;3.05;;
23358;SDS011;11851;50.796;4.372;2022-11-02T16:19:30;11.35;;;2.17;;
23358;SDS011;11851;50.796;4.372;2022-11-02T16:21:56;23.40;;;2.90;;
23358;SDS011;11851;50.796;4.372;2022-11-02T16:24:21;14.77;;;2.42;;
23358;SDS011;11851;50.796;4.372;2022-11-02T16:26:47;13.50;;;2.15;;
23358;SDS011;11851;50.796;4.372;2022-11-02T16:29:21;18.38;;;2.85;;
23358;SDS011;11851;50.796;4.372;2022-11-02T16:31:56;13.27;;;2.17;;
23358;SDS011;11851;50.796;4.372;2022-11-02T16:34:26;14.45;;;2.20;;
23358;SDS011;11851;50.796;4.372;2022-11-02T16:36:54;18.95;;;3.33;;
23358;SDS011;11851;50.796;4.372;2022-11-02T16:39:22;13.35;;;2.45;;
23358;SDS011;11851;50.796;4.372;2022-11-02T16:41:54;14.75;;;2.80;;
23358;SDS011;11851;50.796;4.372;2022-11-02T16:44:26;16.63;;;3.85;;
23358;SDS011;11851;50.796;4.372;2022-11-02T16:52:18;10.32;;;2.33;;
23358;SDS011;11851;50.796;4.372;2022-11-02T16:54:57;16.17;;;2.70;;
23358;SDS011;11851;50.796;4.372;2022-11-02T16:57:28;17.40;;;2.83;;
23358;SDS011;11851;50.796;4.372;2022-11-02T17:00:05;11.25;;;2.45;;
23358;SDS011;11851;50.796;4.372;2022-11-02T17:02:41;17.55;;;2.70;;
23358;SDS011;11851;50.796;4.372;2022-11-02T17:05:15;19.30;;;4.53;;
23358;SDS011;11851;50.796;4.372;2022-11-02T17:07:47;14.93;;;2.72;;
23358;SDS011;11851;50.796;4.372;2022-11-02T17:14:05;21.55;;;3.70;;
23358;SDS011;11851;50.796;4.372;2022-11-02T17:19:43;20.15;;;3.28;;
23358;SDS011;11851;50.796;4.372;2022-11-02T17:31:43;15.13;;;2.90;;
23358;SDS011;11851;50.796;4.372;2022-11-02T17:34:12;15.57;;;3.30;;
23358;SDS011;11851;50.796;4.372;2022-11-02T17:36:45;20.08;;;3.60;;
23358;SDS011;11851;50.796;4.372;2022-11-02T17:39:16;16.13;;;2.72;;
23358;SDS011;11851;50.796;4.372;2022-11-02T17:41:43;16.30;;;3.50;;
23358;SDS011;11851;50.796;4.372;2022-11-02T17:44:38;15.68;;;3.28;;
23358;SDS011;11851;50.796;4.372;2022-11-02T17:47:10;20.70;;;3.45;;
23358;SDS011;11851;50.796;4.372;2022-11-02T17:49:38;19.20;;;3.38;;
23358;SDS011;11851;50.796;4.372;2022-11-02T17:52:04;18.50;;;3.60;;
23358;SDS011;11851;50.796;4.372;2022-11-02T17:54:29;23.83;;;3.50;;
23358;SDS011;11851;50.796;4.372;2022-11-02T17:56:55;24.48;;;4.22;;
23358;SDS011;11851;50.796;4.372;2022-11-02T17:59:21;22.95;;;3.58;;
23358;SDS011;11851;50.796;4.372;2022-11-02T18:01:46;19.48;;;2.95;;
23358;SDS011;11851;50.796;4.372;2022-11-02T18:04:12;19.80;;;3.42;;
23358;SDS011;11851;50.796;4.372;2022-11-02T18:06:37;16.88;;;3.05;;